createdAt,value
2024-01-15T00:00:08.581Z,11.45
2024-01-15T00:02:36.497Z,11.45
2024-01-15T00:05:04.565Z,11.43
2024-01-15T00:07:32.425Z,11.44
2024-01-15T00:10:00.433Z,11.44
2024-01-15T00:12:28.554Z,11.44
2024-01-15T00:14:56.469Z,11.40
2024-01-15T00:17:25.741Z,11.40
2024-01-15T00:19:54.041Z,11.42
2024-01-15T00:22:22.037Z,11.47
2024-01-15T00:24:49.926Z,11.43
2024-01-15T00:27:17.933Z,11.45
2024-01-15T00:29:46.285Z,11.47
2024-01-15T00:32:14.154Z,11.44
2024-01-15T00:34:43.499Z,11.48
2024-01-15T00:37:11.440Z,11.45
2024-01-15T00:39:39.377Z,11.48
2024-01-15T00:42:07.371Z,11.49
2024-01-15T00:44:35.255Z,11.48
2024-01-15T00:47:03.524Z,11.47
2024-01-15T00:49:31.420Z,11.48
2024-01-15T00:52:00.665Z,11.50
2024-01-15T00:54:28.751Z,11.51
2024-01-15T00:56:56.964Z,11.50
2024-01-15T00:59:24.823Z,11.50
2024-01-15T01:01:52.736Z,11.51
2024-01-15T01:04:21.054Z,11.50
2024-01-15T01:06:49.373Z,11.46
2024-01-15T01:09:18.692Z,11.49
2024-01-15T01:11:46.707Z,11.51
2024-01-15T01:14:14.571Z,11.54
2024-01-15T01:16:42.435Z,11.51
2024-01-15T01:19:10.461Z,11.52
2024-01-15T01:21:38.639Z,11.51
2024-01-15T01:24:06.797Z,11.52
2024-01-15T01:26:36.025Z,11.53
2024-01-15T01:29:03.882Z,11.51
2024-01-15T01:31:31.905Z,11.54
2024-01-15T01:34:00.016Z,11.54
2024-01-15T01:36:28.019Z,11.56
2024-01-15T01:38:55.940Z,11.54
2024-01-15T01:41:25.222Z,11.53
2024-01-15T01:43:54.451Z,11.54
2024-01-15T01:46:22.317Z,11.54
2024-01-15T01:48:50.238Z,11.52
2024-01-15T01:51:18.359Z,11.55
2024-01-15T01:53:46.528Z,11.53
2024-01-15T01:56:14.363Z,11.57
2024-01-15T01:58:42.242Z,11.56
2024-01-15T02:01:12.199Z,11.55
2024-01-15T02:03:40.481Z,11.57
2024-01-15T02:06:08.606Z,11.59
2024-01-15T02:08:36.755Z,11.55
2024-01-15T02:11:04.713Z,11.54
2024-01-15T02:13:32.565Z,11.56
2024-01-15T02:16:00.468Z,11.56
2024-01-15T02:18:29.828Z,11.55
2024-01-15T02:20:57.794Z,11.56
2024-01-15T02:23:27.002Z,11.57
2024-01-15T02:25:54.862Z,11.60
2024-01-15T02:28:22.714Z,11.59
2024-01-15T02:30:50.734Z,11.55
2024-01-15T02:33:18.915Z,11.60
2024-01-15T02:35:47.429Z,11.60
2024-01-15T02:38:15.355Z,11.61
2024-01-15T02:40:46.455Z,11.59
2024-01-15T02:43:14.714Z,11.60
2024-01-15T02:45:42.725Z,11.61
2024-01-15T02:48:10.753Z,11.61
2024-01-15T02:50:38.659Z,11.61
2024-01-15T02:53:07.271Z,11.58
2024-01-15T02:55:35.134Z,11.59
2024-01-15T02:58:05.312Z,11.61
2024-01-15T03:00:33.188Z,11.62
2024-01-15T03:03:01.100Z,11.60
2024-01-15T03:05:28.952Z,11.59
2024-01-15T03:07:56.805Z,11.61
2024-01-15T03:10:24.668Z,11.60
2024-01-15T03:12:52.620Z,11.59
2024-01-15T03:15:21.859Z,11.55
2024-01-15T03:17:49.737Z,11.59
2024-01-15T03:20:17.599Z,11.62
2024-01-15T03:22:45.455Z,11.57
2024-01-15T03:25:13.332Z,11.57
2024-01-15T03:27:41.302Z,11.57
2024-01-15T03:30:10.257Z,11.57
2024-01-15T03:32:39.648Z,11.59
2024-01-15T03:35:08.570Z,11.56
2024-01-15T03:37:36.658Z,11.59
2024-01-15T03:40:05.157Z,11.63
2024-01-15T03:42:33.214Z,11.60
2024-01-15T03:45:01.108Z,11.56
2024-01-15T03:47:29.055Z,11.57
2024-01-15T03:49:58.287Z,11.60
2024-01-15T03:52:26.144Z,11.61
2024-01-15T03:54:54.085Z,11.61
2024-01-15T03:57:22.031Z,11.55
2024-01-15T03:59:49.960Z,11.56
2024-01-15T04:02:17.783Z,11.59
2024-01-15T04:04:45.756Z,11.66
2024-01-15T04:07:15.195Z,11.62
2024-01-15T04:09:43.244Z,11.62
2024-01-15T04:12:11.210Z,11.61
2024-01-15T04:14:39.102Z,11.57
2024-01-15T04:17:06.983Z,11.57
2024-01-15T04:19:34.885Z,11.55
2024-01-15T04:22:02.774Z,11.60
2024-01-15T04:24:33.509Z,11.62
2024-01-15T04:27:01.937Z,11.60
2024-01-15T04:29:29.809Z,11.57
2024-01-15T04:31:57.950Z,11.55
2024-01-15T04:34:25.977Z,11.55
2024-01-15T04:36:53.923Z,11.63
2024-01-15T04:39:21.839Z,11.60
2024-01-15T04:41:51.038Z,11.59
2024-01-15T04:44:18.870Z,11.57
2024-01-15T04:46:45.805Z,11.56
2024-01-15T04:49:14.107Z,11.58
2024-01-15T04:51:42.113Z,11.59
2024-01-15T04:54:10.006Z,11.57
2024-01-15T04:56:37.886Z,11.57
2024-01-15T04:59:07.067Z,11.60
2024-01-15T05:01:35.083Z,11.56
2024-01-15T05:04:03.196Z,11.53
2024-01-15T05:06:31.199Z,11.53
2024-01-15T05:08:59.197Z,11.52
2024-01-15T05:11:27.032Z,11.49
2024-01-15T05:13:54.885Z,11.47
2024-01-15T05:16:24.137Z,11.52
2024-01-15T05:18:52.163Z,11.50
2024-01-15T05:21:20.099Z,11.51
2024-01-15T05:23:47.980Z,11.51
2024-01-15T05:26:15.829Z,11.47
2024-01-15T05:28:44.341Z,11.46
2024-01-15T05:31:12.361Z,11.46
2024-01-15T05:33:41.920Z,11.46
2024-01-15T05:36:10.033Z,11.46
2024-01-15T05:38:37.922Z,11.46
2024-01-15T05:41:06.867Z,11.48
2024-01-15T05:43:34.716Z,11.47
2024-01-15T05:46:02.691Z,11.47
2024-01-15T05:48:30.725Z,11.46
2024-01-15T05:51:00.058Z,11.48
2024-01-15T05:53:27.918Z,11.49
2024-01-15T05:55:57.104Z,11.51
2024-01-15T05:58:25.045Z,11.48
2024-01-15T06:00:53.067Z,11.52
2024-01-15T06:03:21.018Z,11.53
2024-01-15T06:05:48.940Z,11.53
2024-01-15T06:08:18.167Z,11.53
2024-01-15T06:10:46.077Z,11.51
2024-01-15T06:13:14.647Z,11.55
2024-01-15T06:15:42.559Z,11.55
2024-01-15T06:18:10.962Z,11.53
2024-01-15T06:20:39.402Z,11.52
2024-01-15T06:23:07.272Z,11.54
2024-01-15T06:25:36.460Z,11.52
2024-01-15T06:28:05.894Z,11.51
2024-01-15T06:30:33.832Z,11.52
2024-01-15T06:33:01.932Z,11.52
2024-01-15T06:35:29.816Z,11.56
2024-01-15T06:37:57.681Z,11.52
2024-01-15T06:40:25.959Z,11.51
2024-01-15T06:42:55.186Z,11.51
2024-01-15T06:45:23.189Z,11.54
2024-01-15T06:47:51.139Z,11.55
2024-01-15T06:50:19.135Z,11.53
2024-01-15T06:52:47.073Z,11.52
2024-01-15T06:55:15.186Z,11.53
2024-01-15T06:57:44.050Z,11.54
2024-01-15T07:00:14.591Z,11.50
2024-01-15T07:02:42.786Z,11.52
2024-01-15T07:05:11.046Z,11.53
2024-01-15T07:07:39.008Z,11.54
2024-01-15T07:10:08.687Z,11.53
2024-01-15T07:12:36.770Z,11.53
2024-01-15T07:15:05.223Z,11.55
2024-01-15T07:17:34.577Z,11.54
2024-01-15T07:20:02.706Z,11.52
2024-01-15T07:22:30.761Z,11.51
2024-01-15T07:24:58.775Z,11.52
2024-01-15T07:27:26.865Z,11.51
2024-01-15T07:29:55.089Z,11.53
2024-01-15T07:32:23.608Z,11.54
2024-01-15T07:34:53.169Z,11.52
2024-01-15T07:37:21.096Z,11.51
2024-01-15T07:39:49.144Z,11.51
2024-01-15T07:42:17.109Z,11.53
2024-01-15T07:44:46.131Z,11.53
2024-01-15T07:47:14.163Z,11.53
2024-01-15T07:49:42.183Z,11.53
2024-01-15T07:52:13.932Z,11.53
2024-01-15T07:54:42.061Z,11.55
2024-01-15T07:57:09.947Z,11.54
2024-01-15T07:59:37.843Z,11.57
2024-01-15T08:02:05.735Z,11.55
2024-01-15T08:04:33.669Z,11.53
2024-01-15T08:07:01.687Z,11.57
2024-01-15T08:09:31.428Z,11.61
2024-01-15T08:11:59.523Z,11.60
2024-01-15T08:14:27.382Z,11.57
2024-01-15T08:16:55.255Z,11.58
2024-01-15T08:19:23.311Z,11.60
2024-01-15T08:21:51.365Z,11.62
2024-01-15T08:24:19.954Z,11.58
2024-01-15T08:26:49.182Z,11.57
2024-01-15T08:29:17.143Z,11.62
2024-01-15T08:31:45.214Z,11.61
2024-01-15T08:34:13.361Z,11.60
2024-01-15T08:36:41.731Z,11.61
2024-01-15T08:39:10.131Z,11.61
2024-01-15T08:41:38.117Z,11.63
2024-01-15T08:44:07.316Z,11.63
2024-01-15T08:46:35.270Z,11.63
2024-01-15T08:49:04.406Z,11.63
2024-01-15T08:51:32.450Z,11.66
2024-01-15T08:54:00.472Z,11.63
2024-01-15T08:56:29.014Z,11.63
2024-01-15T08:58:57.893Z,11.66
2024-01-15T09:01:27.984Z,11.64
2024-01-15T09:03:56.452Z,11.61
2024-01-15T09:06:24.723Z,11.60
2024-01-15T09:08:53.190Z,11.63
2024-01-15T09:11:21.424Z,11.65
2024-01-15T09:13:49.312Z,11.66
2024-01-15T09:16:17.447Z,11.65
2024-01-15T09:18:48.129Z,11.64
2024-01-15T09:21:16.172Z,11.65
2024-01-15T09:23:44.423Z,11.65
2024-01-15T09:26:12.330Z,11.63
2024-01-15T09:28:40.532Z,11.62
2024-01-15T09:31:08.625Z,11.63
2024-01-15T09:33:36.724Z,11.64
2024-01-15T09:36:07.414Z,11.62
2024-01-15T09:38:35.863Z,11.61
2024-01-15T09:41:04.693Z,11.61
2024-01-15T09:43:32.931Z,11.64
2024-01-15T09:46:01.368Z,11.65
2024-01-15T09:48:29.477Z,11.63
2024-01-15T09:50:57.906Z,11.66
2024-01-15T09:53:27.493Z,11.68
2024-01-15T09:55:55.830Z,11.65
2024-01-15T09:58:24.152Z,11.65
2024-01-15T10:00:52.421Z,11.52
2024-01-15T10:03:22.241Z,11.67
2024-01-15T10:05:51.255Z,11.69
2024-01-15T10:08:19.422Z,11.59
2024-01-15T10:10:49.490Z,11.63
2024-01-15T10:13:17.964Z,11.67
2024-01-15T10:15:47.917Z,11.66
2024-01-15T10:18:16.032Z,11.66
2024-01-15T10:20:44.821Z,11.64
2024-01-15T10:23:13.054Z,11.65
2024-01-15T10:25:41.742Z,11.65
2024-01-15T10:28:11.701Z,11.65
2024-01-15T10:30:39.745Z,11.65
2024-01-15T10:33:08.059Z,11.61
2024-01-15T10:35:36.610Z,11.61
2024-01-15T10:38:05.611Z,11.61
2024-01-15T10:40:34.279Z,11.63
2024-01-15T10:43:02.351Z,11.59
2024-01-15T10:45:32.456Z,11.58
2024-01-15T10:48:01.665Z,11.60
2024-01-15T10:50:30.018Z,11.61
2024-01-15T10:52:57.942Z,11.59
2024-01-15T10:55:26.465Z,11.56
2024-01-15T10:57:55.060Z,11.57
2024-01-15T11:00:23.392Z,11.61
2024-01-15T11:02:52.711Z,11.61
2024-01-15T11:05:23.341Z,11.57
2024-01-15T11:07:51.267Z,11.58
2024-01-15T11:10:39.980Z,11.60
2024-01-15T11:13:09.990Z,11.59
2024-01-15T11:16:02.107Z,11.58
2024-01-15T11:18:32.565Z,11.59
2024-01-15T11:21:31.051Z,11.59
2024-01-15T11:24:00.062Z,11.61
2024-01-15T11:26:46.228Z,11.60
2024-01-15T11:29:32.736Z,11.58
2024-01-15T11:32:02.702Z,11.60
2024-01-15T11:34:55.072Z,11.62
2024-01-15T11:37:24.629Z,11.60
2024-01-15T11:39:53.978Z,11.60
2024-01-15T11:42:22.153Z,11.60
2024-01-15T11:44:50.350Z,11.60
2024-01-15T11:47:18.271Z,11.62
2024-01-15T11:50:00.517Z,11.39
2024-01-15T11:52:28.533Z,11.59
2024-01-15T11:54:58.641Z,11.62
2024-01-15T11:57:29.728Z,11.60
2024-01-15T11:59:57.631Z,11.60
2024-01-15T12:02:25.526Z,11.57
2024-01-15T12:04:53.501Z,11.57
2024-01-15T12:07:22.936Z,11.59
2024-01-15T12:09:50.980Z,11.57
2024-01-15T12:12:23.138Z,11.60
2024-01-15T12:14:51.070Z,11.59
2024-01-15T12:17:18.992Z,11.52
2024-01-15T12:19:47.023Z,11.61
2024-01-15T12:22:16.467Z,11.58
2024-01-15T12:24:45.687Z,11.56
2024-01-15T12:27:13.644Z,11.59
2024-01-15T12:29:41.553Z,11.57
2024-01-15T12:32:09.482Z,11.54
2024-01-15T12:34:37.517Z,11.55
2024-01-15T12:37:05.970Z,11.53
2024-01-15T12:39:36.089Z,11.55
2024-01-15T12:42:06.870Z,11.56
2024-01-15T12:44:34.757Z,11.55
2024-01-15T12:47:02.733Z,11.52
2024-01-15T12:49:30.724Z,11.46
2024-01-15T12:51:59.185Z,11.57
2024-01-15T12:54:27.291Z,11.56
2024-01-15T12:56:55.223Z,11.55
2024-01-15T12:59:24.413Z,11.37
2024-01-15T13:01:52.331Z,11.52
2024-01-15T13:04:26.520Z,11.56
2024-01-15T13:06:54.834Z,11.56
2024-01-15T13:09:22.807Z,11.54
2024-01-15T13:11:50.810Z,11.56
2024-01-15T13:14:18.695Z,11.57
2024-01-15T13:16:47.882Z,11.59
2024-01-15T13:19:15.919Z,11.56
2024-01-15T13:21:44.111Z,11.32
2024-01-15T13:24:12.253Z,11.56
2024-01-15T13:26:40.166Z,11.57
2024-01-15T13:29:08.091Z,11.53
2024-01-15T13:31:36.240Z,11.45
2024-01-15T13:34:05.792Z,11.52
2024-01-15T13:36:33.924Z,11.57
2024-01-15T13:39:02.126Z,11.56
2024-01-15T13:41:30.712Z,11.55
2024-01-15T13:43:59.883Z,11.56
2024-01-15T13:46:28.496Z,11.53
2024-01-15T13:48:56.479Z,11.56
2024-01-15T13:51:25.881Z,11.53
2024-01-15T13:53:54.033Z,11.50
2024-01-15T13:56:22.023Z,11.48
2024-01-15T13:58:50.660Z,11.56
2024-01-15T14:01:19.624Z,11.54
2024-01-15T14:03:47.746Z,11.50
2024-01-15T14:06:15.864Z,11.53
2024-01-15T14:08:45.132Z,11.52
2024-01-15T14:11:13.538Z,11.51
2024-01-15T14:13:41.449Z,11.54
2024-01-15T14:16:11.005Z,11.52
2024-01-15T14:18:39.048Z,11.53
2024-01-15T14:21:07.127Z,11.53
2024-01-15T14:23:35.330Z,11.55
2024-01-15T14:26:05.445Z,11.53
2024-01-15T14:28:33.317Z,11.53
2024-01-15T14:31:01.420Z,11.54
2024-01-15T14:33:29.734Z,11.53
2024-01-15T14:35:57.750Z,11.54
2024-01-15T14:38:25.798Z,11.49
2024-01-15T14:40:53.670Z,11.51
2024-01-15T14:43:23.166Z,11.50
2024-01-15T14:45:51.017Z,11.51
2024-01-15T14:48:19.740Z,11.49
2024-01-15T14:50:47.773Z,11.48
2024-01-15T14:53:15.803Z,11.49
2024-01-15T14:55:43.748Z,11.47
2024-01-15T14:58:11.730Z,11.50
2024-01-15T15:00:41.065Z,11.48
2024-01-15T15:03:09.149Z,11.47
2024-01-15T15:05:37.442Z,11.45
2024-01-15T15:08:09.714Z,11.51
2024-01-15T15:10:37.724Z,11.50
2024-01-15T15:13:06.018Z,11.47
2024-01-15T15:15:34.350Z,11.47
2024-01-15T15:18:03.792Z,11.48
2024-01-15T15:20:31.812Z,11.42
2024-01-15T15:22:59.762Z,11.48
2024-01-15T15:25:27.780Z,11.44
2024-01-15T15:27:55.772Z,11.48
2024-01-15T15:30:23.753Z,11.48
2024-01-15T15:32:51.915Z,11.46
2024-01-15T15:35:21.737Z,11.49
2024-01-15T15:37:49.680Z,11.44
2024-01-15T15:40:18.526Z,11.50
2024-01-15T15:42:46.550Z,11.50
2024-01-15T15:45:14.629Z,11.46
2024-01-15T15:47:42.735Z,11.49
2024-01-15T15:50:11.426Z,11.49
2024-01-15T15:52:41.011Z,11.50
2024-01-15T15:55:10.048Z,11.48
2024-01-15T15:57:38.396Z,11.50
2024-01-15T16:00:08.076Z,11.50
2024-01-15T16:02:36.084Z,11.52
2024-01-15T16:05:10.393Z,11.52
2024-01-15T16:07:38.392Z,11.52
2024-01-15T16:10:08.860Z,11.52
2024-01-15T16:12:36.797Z,11.52
2024-01-15T16:15:05.055Z,11.52
2024-01-15T16:23:16.229Z,11.52
2024-01-15T16:23:30.265Z,11.52
2024-01-15T16:24:00.348Z,11.53
2024-01-15T16:25:59.878Z,11.54
2024-01-15T16:28:28.055Z,11.52
2024-01-15T16:31:02.184Z,11.54
2024-01-15T16:33:32.756Z,11.53
2024-01-15T16:36:00.888Z,11.55
2024-01-15T16:38:29.419Z,11.53
2024-01-15T16:40:58.773Z,11.54
2024-01-15T16:43:27.357Z,11.54
2024-01-15T16:45:55.467Z,11.52
2024-01-15T16:48:23.597Z,11.51
2024-01-15T16:50:54.173Z,11.55
2024-01-15T16:53:22.086Z,11.59
2024-01-15T16:55:50.091Z,11.60
2024-01-15T16:58:19.395Z,11.56
2024-01-15T17:00:48.194Z,11.56
2024-01-15T17:03:16.117Z,11.59
2024-01-15T17:05:44.037Z,11.63
2024-01-15T17:08:12.020Z,11.60
2024-01-15T17:10:41.726Z,11.59
2024-01-15T17:13:10.145Z,11.62
2024-01-15T17:15:39.409Z,11.63
2024-01-15T17:18:08.501Z,11.63
2024-01-15T17:20:37.448Z,11.61
2024-01-15T17:23:06.160Z,11.58
2024-01-15T17:25:34.321Z,11.62
2024-01-15T17:28:02.357Z,11.64
2024-01-15T17:30:30.294Z,11.62
2024-01-15T17:32:59.598Z,11.62
2024-01-15T17:35:27.847Z,11.63
2024-01-15T17:37:55.768Z,11.59
2024-01-15T17:40:23.865Z,11.58
2024-01-15T17:42:51.813Z,11.62
2024-01-15T17:45:20.353Z,11.62
2024-01-15T17:47:50.334Z,11.65
2024-01-15T17:50:20.531Z,11.61
2024-01-15T17:52:48.958Z,11.60
2024-01-15T17:55:17.131Z,11.65
2024-01-15T17:57:45.498Z,11.64
2024-01-15T18:00:15.867Z,11.64
2024-01-15T18:02:43.851Z,11.58
2024-01-15T18:05:11.875Z,11.58
2024-01-15T18:07:41.549Z,11.59
2024-01-15T18:10:10.874Z,11.58
2024-01-15T18:12:38.771Z,11.56
2024-01-15T18:15:07.598Z,11.59
2024-01-15T18:17:36.382Z,11.59
2024-01-15T18:20:05.074Z,11.61
2024-01-15T18:22:33.010Z,11.55
2024-01-15T18:25:02.253Z,11.55
2024-01-15T18:27:30.091Z,11.61
2024-01-15T18:29:58.339Z,11.56
2024-01-15T18:32:27.199Z,11.56
2024-01-15T18:34:55.194Z,11.55
2024-01-15T18:37:23.147Z,11.54
2024-01-15T18:39:52.528Z,11.57
2024-01-15T18:42:21.728Z,11.53
2024-01-15T18:44:49.769Z,11.53
2024-01-15T18:47:17.822Z,11.53
2024-01-15T18:49:45.719Z,11.55
2024-01-15T18:52:15.355Z,11.59
2024-01-15T18:54:43.540Z,11.54
2024-01-15T18:57:11.408Z,11.52
2024-01-15T18:59:41.171Z,11.56
2024-01-15T19:02:09.145Z,11.56
2024-01-15T19:04:37.053Z,11.59
2024-01-15T19:07:07.476Z,11.55
2024-01-15T19:09:35.344Z,11.55
2024-01-15T19:12:03.194Z,11.55
2024-01-15T19:14:31.538Z,11.55
2024-01-15T19:17:02.618Z,11.52
2024-01-15T19:19:32.713Z,11.51
2024-01-15T19:22:00.630Z,11.51
2024-01-15T19:24:28.517Z,11.54
2024-01-15T19:26:56.373Z,11.55
2024-01-15T19:29:24.275Z,11.54
2024-01-15T19:31:52.210Z,11.54
2024-01-15T19:34:21.477Z,11.55
2024-01-15T19:36:49.366Z,11.58
2024-01-15T19:39:17.221Z,11.56
2024-01-15T19:41:45.133Z,11.54
2024-01-15T19:44:13.031Z,11.51
2024-01-15T19:46:41.162Z,11.54
2024-01-15T19:49:09.936Z,11.54
2024-01-15T19:51:40.133Z,11.50
2024-01-15T19:54:08.117Z,11.50
2024-01-15T19:56:37.083Z,11.48
2024-01-15T19:59:05.181Z,11.52
2024-01-15T20:01:33.372Z,11.52
2024-01-15T20:04:01.292Z,11.49
2024-01-15T20:06:29.847Z,11.50
2024-01-15T20:08:59.733Z,11.48
2024-01-15T20:11:27.821Z,11.48
2024-01-15T20:13:55.723Z,11.45
2024-01-15T20:16:25.273Z,11.47
2024-01-15T20:18:53.347Z,11.44
2024-01-15T20:21:21.392Z,11.43
2024-01-15T20:23:55.218Z,11.40
2024-01-15T20:26:28.282Z,11.39
2024-01-15T20:28:56.800Z,11.40
2024-01-15T20:31:24.846Z,11.40
2024-01-15T20:33:52.860Z,11.39
2024-01-15T20:36:20.824Z,11.37
2024-01-15T20:38:48.695Z,11.43
2024-01-15T20:41:17.238Z,11.43
2024-01-15T20:43:46.662Z,11.45
2024-01-15T20:46:14.636Z,11.44
2024-01-15T20:48:43.019Z,11.47
2024-01-15T20:51:11.221Z,11.51
2024-01-15T20:53:40.952Z,11.52
2024-01-15T20:56:08.827Z,11.49
2024-01-15T20:58:36.673Z,11.48
2024-01-15T21:01:07.943Z,11.50
2024-01-15T21:03:36.785Z,11.55
2024-01-15T21:06:04.915Z,11.51
2024-01-15T21:08:32.976Z,11.51
2024-01-15T21:11:03.543Z,11.51
2024-01-15T21:13:31.471Z,11.53
2024-01-15T21:15:59.331Z,11.57
2024-01-15T21:18:28.593Z,11.51
2024-01-15T21:20:56.748Z,11.49
2024-01-15T21:23:24.731Z,11.50
2024-01-15T21:25:53.952Z,11.51
2024-01-15T21:28:23.040Z,11.51
2024-01-15T21:30:51.157Z,11.49
2024-01-15T21:33:19.051Z,11.48
2024-01-15T21:35:48.399Z,11.49
2024-01-15T21:38:16.325Z,11.44
2024-01-15T21:40:44.270Z,11.46
2024-01-15T21:43:12.179Z,11.46
2024-01-15T21:45:40.046Z,11.46
2024-01-15T21:48:08.002Z,11.48
2024-01-15T21:50:36.195Z,11.47
2024-01-15T21:53:05.814Z,11.44
2024-01-15T21:55:33.711Z,11.45
2024-01-15T21:58:01.805Z,11.48
2024-01-15T22:00:29.674Z,11.46
2024-01-15T22:02:57.602Z,11.50
2024-01-15T22:05:25.616Z,11.49
2024-01-15T22:07:53.555Z,11.51
2024-01-15T22:10:22.742Z,11.48
2024-01-15T22:12:50.690Z,11.51
2024-01-15T22:15:18.536Z,11.50
2024-01-15T22:17:46.497Z,11.50
2024-01-15T22:20:14.468Z,11.47
2024-01-15T22:22:42.430Z,11.48
2024-01-15T22:25:10.554Z,11.44
2024-01-15T22:27:39.769Z,11.48
2024-01-15T22:30:08.642Z,11.47
2024-01-15T22:32:36.683Z,11.44
2024-01-15T22:35:04.899Z,11.43
2024-01-15T22:37:32.811Z,11.42
2024-01-15T22:40:00.651Z,11.40
2024-01-15T22:42:29.062Z,11.41
2024-01-15T22:44:58.425Z,11.41
2024-01-15T22:47:26.483Z,11.40
2024-01-15T22:49:54.809Z,11.41
2024-01-15T22:52:22.673Z,11.44
2024-01-15T22:54:52.411Z,11.43
2024-01-15T22:57:20.342Z,11.44
2024-01-15T22:59:48.300Z,11.44
2024-01-15T23:02:18.979Z,11.42
2024-01-15T23:04:47.295Z,11.50
2024-01-15T23:07:15.242Z,11.50
2024-01-15T23:09:43.183Z,11.49
2024-01-15T23:12:11.033Z,11.54
2024-01-15T23:14:39.088Z,11.56
2024-01-15T23:17:07.035Z,11.55
2024-01-15T23:19:36.408Z,11.55
2024-01-15T23:22:04.520Z,11.55
2024-01-15T23:24:32.383Z,11.55
2024-01-15T23:27:00.435Z,11.54
2024-01-15T23:29:28.351Z,11.52
2024-01-15T23:31:56.238Z,11.50
2024-01-15T23:34:24.195Z,11.54
2024-01-15T23:36:53.427Z,11.54
2024-01-15T23:39:21.277Z,11.53
2024-01-15T23:41:51.015Z,11.51
2024-01-15T23:44:18.992Z,11.52
2024-01-15T23:46:47.068Z,11.54
2024-01-15T23:49:15.149Z,11.50
2024-01-15T23:51:43.081Z,11.50
2024-01-15T23:54:12.329Z,11.50
2024-01-15T23:56:40.390Z,11.52
2024-01-15T23:59:08.392Z,11.50
